sensor_id;sensor_type;location;lat;lon;timestamp;temperature;humidity
56123;DHT22;42426;46.104;19.656;2023-07-20T14:21:11;845.30;1075.20
56123;DHT22;42426;46.104;19.656;2023-07-20T14:23:37;845.10;1049.60
56123;DHT22;42426;46.104;19.656;2023-07-20T14:26:03;845.20;1049.60
56123;DHT22;42426;46.104;19.656;2023-07-20T14:28:31;845.40;1024.00
56123;DHT22;42426;46.104;19.656;2023-07-20T14:30:57;845.30;998.40
56123;DHT22;42426;46.104;19.656;2023-07-20T14:33:23;845.30;998.40
56123;DHT22;42426;46.104;19.656;2023-07-20T14:35:49;845.30;998.40
56123;DHT22;42426;46.104;19.656;2023-07-20T14:38:14;845.30;998.40
56123;DHT22;42426;46.104;19.656;2023-07-20T14:40:40;845.50;998.40
56123;DHT22;42426;46.104;19.656;2023-07-20T14:43:07;845.50;972.80
56123;DHT22;42426;46.104;19.656;2023-07-20T14:45:32;845.50;972.80
56123;DHT22;42426;46.104;19.656;2023-07-20T14:47:58;845.70;972.80
56123;DHT22;42426;46.104;19.656;2023-07-20T14:50:24;845.70;972.80
56123;DHT22;42426;46.104;19.656;2023-07-20T14:55:16;870.80;972.80
56123;DHT22;42426;46.104;19.656;2023-07-20T14:57:43;870.70;947.20
56123;DHT22;42426;46.104;19.656;2023-07-20T15:05:07;871.10;896.00
56123;DHT22;42426;46.104;19.656;2023-07-20T15:07:33;870.70;896.00
56123;DHT22;42426;46.104;19.656;2023-07-20T15:10:00;870.80;896.00
56123;DHT22;42426;46.104;19.656;2023-07-20T15:12:26;870.70;896.00
56123;DHT22;42426;46.104;19.656;2023-07-20T15:15:11;870.70;921.60
56123;DHT22;42426;46.104;19.656;2023-07-20T15:17:40;871.30;921.60
56123;DHT22;42426;46.104;19.656;2023-07-20T15:20:07;871.10;921.60
56123;DHT22;42426;46.104;19.656;2023-07-20T15:32:19;896.60;896.00
56123;DHT22;42426;46.104;19.656;2023-07-20T15:34:46;896.50;921.60
56123;DHT22;42426;46.104;19.656;2023-07-20T15:37:12;896.40;844.80
56123;DHT22;42426;46.104;19.656;2023-07-20T15:42:05;921.90;870.40
56123;DHT22;42426;46.104;19.656;2023-07-20T15:54:21;948.00;819.20
56123;DHT22;42426;46.104;19.656;2023-07-20T15:56:47;948.00;793.60
56123;DHT22;42426;46.104;19.656;2023-07-20T15:59:14;973.20;870.40
56123;DHT22;42426;46.104;19.656;2023-07-20T16:01:41;973.50;793.60
56123;DHT22;42426;46.104;19.656;2023-07-20T16:04:08;973.70;793.60
56123;DHT22;42426;46.104;19.656;2023-07-20T16:06:34;998.90;793.60
56123;DHT22;42426;46.104;19.656;2023-07-20T16:09:02;999.00;768.00
56123;DHT22;42426;46.104;19.656;2023-07-20T16:13:55;1024.00;716.80
56123;DHT22;42426;46.104;19.656;2023-07-20T16:16:21;999.20;768.00
56123;DHT22;42426;46.104;19.656;2023-07-20T16:18:50;999.20;716.80
56123;DHT22;42426;46.104;19.656;2023-07-20T16:21:16;998.90;742.40
56123;DHT22;42426;46.104;19.656;2023-07-20T16:23:43;998.50;716.80
56123;DHT22;42426;46.104;19.656;2023-07-20T16:26:09;973.60;716.80
56123;DHT22;42426;46.104;19.656;2023-07-20T16:28:34;973.50;742.40
56123;DHT22;42426;46.104;19.656;2023-07-20T16:31:04;973.00;870.40
56123;DHT22;42426;46.104;19.656;2023-07-20T16:33:33;948.00;742.40
56123;DHT22;42426;46.104;19.656;2023-07-20T16:35:59;947.60;793.60
56123;DHT22;42426;46.104;19.656;2023-07-20T16:38:25;922.50;896.00
56123;DHT22;42426;46.104;19.656;2023-07-20T16:40:55;921.80;819.20
56123;DHT22;42426;46.104;19.656;2023-07-20T16:43:22;896.80;896.00
56123;DHT22;42426;46.104;19.656;2023-07-20T16:45:47;896.00;870.40
56123;DHT22;42426;46.104;19.656;2023-07-20T16:48:13;870.80;972.80
56123;DHT22;42426;46.104;19.656;2023-07-20T16:50:39;870.60;1075.20
56123;DHT22;42426;46.104;19.656;2023-07-20T16:53:04;845.50;921.60
56123;DHT22;42426;46.104;19.656;2023-07-20T16:55:30;845.30;972.80
56123;DHT22;42426;46.104;19.656;2023-07-20T16:57:56;845.30;998.40
56123;DHT22;42426;46.104;19.656;2023-07-20T17:00:21;845.20;1100.80
56123;DHT22;42426;46.104;19.656;2023-07-20T17:02:47;844.80;1024.00
56123;DHT22;42426;46.104;19.656;2023-07-20T17:05:13;820.00;1100.80
56123;DHT22;42426;46.104;19.656;2023-07-20T17:07:39;820.00;1100.80
56123;DHT22;42426;46.104;19.656;2023-07-20T17:10:10;844.80;1100.80
56123;DHT22;42426;46.104;19.656;2023-07-20T17:17:30;819.70;998.40
56123;DHT22;42426;46.104;19.656;2023-07-20T17:19:56;819.40;1203.20
56123;DHT22;42426;46.104;19.656;2023-07-20T17:24:48;794.40;1100.80
56123;DHT22;42426;46.104;19.656;2023-07-20T17:27:13;794.10;1177.60
56123;DHT22;42426;46.104;19.656;2023-07-20T17:29:40;794.00;1075.20
56123;DHT22;42426;46.104;19.656;2023-07-20T17:32:07;793.90;1100.80
56123;DHT22;42426;46.104;19.656;2023-07-20T17:34:33;793.60;1100.80
56123;DHT22;42426;46.104;19.656;2023-07-20T17:37:01;793.60;1152.00
56123;DHT22;42426;46.104;19.656;2023-07-20T17:39:27;768.80;1254.40
56123;DHT22;42426;46.104;19.656;2023-07-20T17:41:53;768.50;1152.00
56123;DHT22;42426;46.104;19.656;2023-07-20T17:44:19;768.50;1254.40
56123;DHT22;42426;46.104;19.656;2023-07-20T17:46:45;768.50;1126.40
56123;DHT22;42426;46.104;19.656;2023-07-20T17:49:11;768.30;1075.20
56123;DHT22;42426;46.104;19.656;2023-07-20T17:51:36;768.30;1280.00
56123;DHT22;42426;46.104;19.656;2023-07-20T17:54:02;768.20;1228.80
56123;DHT22;42426;46.104;19.656;2023-07-20T18:08:41;768.30;1126.40
56123;DHT22;42426;46.104;19.656;2023-07-20T20:08:20;716.80;1331.20
56123;DHT22;42426;46.104;19.656;2023-07-20T20:10:47;716.80;1331.20
56123;DHT22;42426;46.104;19.656;2023-07-20T20:13:13;692.00;1305.60
56123;DHT22;42426;46.104;19.656;2023-07-20T20:25:28;691.90;1305.60
56123;DHT22;42426;46.104;19.656;2023-07-20T20:30:21;691.70;1305.60
56123;DHT22;42426;46.104;19.656;2023-07-20T20:32:50;691.60;1331.20
56123;DHT22;42426;46.104;19.656;2023-07-20T20:35:16;691.50;1484.80
56123;DHT22;42426;46.104;19.656;2023-07-20T20:37:42;691.50;1356.80
56123;DHT22;42426;46.104;19.656;2023-07-20T20:40:08;691.40;1331.20
56123;DHT22;42426;46.104;19.656;2023-07-20T20:42:33;691.30;1356.80
56123;DHT22;42426;46.104;19.656;2023-07-20T20:44:59;691.30;1331.20
56123;DHT22;42426;46.104;19.656;2023-07-20T20:47:25;691.40;1433.60
56123;DHT22;42426;46.104;19.656;2023-07-20T20:49:53;691.30;1408.00
56123;DHT22;42426;46.104;19.656;2023-07-20T20:52:19;691.30;1382.40
